Edgewater Beach, Maryland
Current Conditions -  °F | °C
As of 1:54 AM on Wednesday 26 Nov 2014 (Local Time) from KNAK Reporting Station
Overcast Overcast  
Wind Chill: 48°   Ceiling: 7500
Heat Index: 48°   Visibility: 10mi
Dew Point: 37°   Wind: 0mph
Humidity: 66%   Direction: NA
Pressure: 30.15"   Gusts: NA
Location:  38.9095°N, 76.5486°W
Report Text: KNAK 260654Z AUTO 00000KT 10SM OVC075 09/03 A3015 RMK AO2 SLP211 T00890028
Loading
Personal Weather Stations






























Interactive Weather Map New forecast layout! Learn more

10-Day Weather Forecast

Advertisements
Track Severe Weather on mobile